createdAt,value
2018-05-07T00:00:54.620Z,18.40
2018-05-07T00:03:21.513Z,18.50
2018-05-07T00:05:48.459Z,18.40
2018-05-07T00:08:15.695Z,18.40
2018-05-07T00:10:42.540Z,18.50
2018-05-07T00:13:09.413Z,18.40
2018-05-07T00:15:36.289Z,18.30
2018-05-07T00:18:03.088Z,18.20
2018-05-07T00:20:30.968Z,18.10
2018-05-07T00:22:57.746Z,18.00
2018-05-07T00:25:24.620Z,17.90
2018-05-07T00:27:51.457Z,18.00
2018-05-07T00:30:18.298Z,18.00
2018-05-07T00:32:45.179Z,17.90
2018-05-07T00:35:12.020Z,17.80
2018-05-07T00:37:38.917Z,17.80
2018-05-07T00:40:05.796Z,17.90
2018-05-07T00:42:32.620Z,17.90
2018-05-07T00:44:59.466Z,18.00
2018-05-07T00:47:26.410Z,18.00
2018-05-07T00:49:53.255Z,18.00
2018-05-07T00:52:20.230Z,18.00
2018-05-07T00:57:45.074Z,18.00
2018-05-07T01:00:11.966Z,18.00
2018-05-07T01:02:38.814Z,17.90
2018-05-07T01:05:05.772Z,17.90
2018-05-07T01:07:32.701Z,17.80
2018-05-07T01:09:59.663Z,17.80
2018-05-07T01:12:26.505Z,17.80
2018-05-07T01:14:53.768Z,17.60
2018-05-07T01:17:21.020Z,17.60
2018-05-07T01:19:48.339Z,17.50
2018-05-07T01:22:15.284Z,17.50
2018-05-07T01:24:42.242Z,17.50
2018-05-07T01:27:09.101Z,17.40
2018-05-07T01:29:35.957Z,17.40
2018-05-07T01:32:02.818Z,17.40
2018-05-07T01:34:29.686Z,17.40
2018-05-07T01:36:56.609Z,17.30
2018-05-07T01:39:23.902Z,17.30
2018-05-07T01:41:50.856Z,17.30
2018-05-07T01:44:17.706Z,17.30
2018-05-07T01:46:44.583Z,17.30
2018-05-07T01:49:11.440Z,17.30
2018-05-07T01:51:38.329Z,17.30
2018-05-07T01:54:05.167Z,17.20
2018-05-07T01:56:32.111Z,17.30
2018-05-07T01:58:59.001Z,17.30
2018-05-07T02:01:25.922Z,17.30
2018-05-07T02:03:52.895Z,17.30
2018-05-07T02:06:19.737Z,17.20
2018-05-07T02:08:46.713Z,17.20
2018-05-07T02:11:13.659Z,17.20
2018-05-07T02:13:40.645Z,17.30
2018-05-07T02:16:07.494Z,17.10
2018-05-07T02:18:34.358Z,17.10
2018-05-07T02:21:01.223Z,17.00
2018-05-07T02:23:28.146Z,16.90
2018-05-07T02:25:54.990Z,17.00
2018-05-07T02:28:21.870Z,17.00
2018-05-07T02:30:48.744Z,17.00
2018-05-07T02:33:15.584Z,16.90
2018-05-07T02:35:42.447Z,16.80
2018-05-07T02:38:09.296Z,16.80
2018-05-07T02:40:36.140Z,16.90
2018-05-07T02:43:03.095Z,16.90
2018-05-07T02:45:29.927Z,17.00
2018-05-07T02:47:57.279Z,17.00
2018-05-07T02:50:24.308Z,17.00
2018-05-07T02:52:51.235Z,17.00
2018-05-07T02:55:18.140Z,16.90
2018-05-07T02:57:45.033Z,16.90
2018-05-07T03:00:12.283Z,16.90
2018-05-07T03:02:39.527Z,16.90
2018-05-07T03:05:06.443Z,16.90
2018-05-07T03:07:33.507Z,16.90
2018-05-07T03:10:00.352Z,16.80
2018-05-07T03:12:27.234Z,16.80
2018-05-07T03:14:54.111Z,16.80
2018-05-07T03:17:20.989Z,16.80
2018-05-07T03:19:47.941Z,16.80
2018-05-07T03:22:14.853Z,16.80
2018-05-07T03:24:41.807Z,16.80
2018-05-07T03:27:09.038Z,16.80
2018-05-07T03:29:35.930Z,16.80
2018-05-07T03:32:02.782Z,16.70
2018-05-07T03:34:29.677Z,16.70
2018-05-07T03:36:56.618Z,16.70
2018-05-07T03:39:23.507Z,16.70
2018-05-07T03:41:50.430Z,16.60
2018-05-07T03:44:17.283Z,16.60
2018-05-07T03:46:44.147Z,16.60
2018-05-07T03:49:10.985Z,16.70
2018-05-07T03:51:37.853Z,16.60
2018-05-07T03:54:04.707Z,16.60
2018-05-07T03:56:31.567Z,16.60
2018-05-07T03:58:58.428Z,16.50
2018-05-07T04:01:25.719Z,16.50
2018-05-07T04:03:52.684Z,16.50
2018-05-07T04:06:19.526Z,16.50
2018-05-07T04:08:46.400Z,16.60
2018-05-07T04:11:13.248Z,16.60
2018-05-07T04:13:40.102Z,16.50
2018-05-07T04:16:06.935Z,16.40
2018-05-07T04:18:45.855Z,16.40
2018-05-07T04:21:14.676Z,16.40
2018-05-07T04:23:53.474Z,16.40
2018-05-07T04:26:20.319Z,16.40
2018-05-07T04:28:47.182Z,16.40
2018-05-07T04:31:14.439Z,16.50
2018-05-07T04:33:41.362Z,16.50
2018-05-07T04:36:08.217Z,16.50
2018-05-07T04:38:35.076Z,16.50
2018-05-07T04:41:01.921Z,16.50
2018-05-07T04:43:28.767Z,16.50
2018-05-07T04:45:56.033Z,16.20
2018-05-07T04:48:23.269Z,16.20
2018-05-07T04:50:50.278Z,16.20
2018-05-07T04:53:17.502Z,16.40
2018-05-07T04:55:44.348Z,16.40
2018-05-07T04:58:11.276Z,16.60
2018-05-07T05:00:38.115Z,16.60
2018-05-07T05:03:04.991Z,16.60
2018-05-07T05:05:31.851Z,16.60
2018-05-07T05:07:58.795Z,16.60
2018-05-07T05:10:25.645Z,16.60
2018-05-07T05:12:52.626Z,16.70
2018-05-07T05:15:19.487Z,16.80
2018-05-07T05:17:46.443Z,16.90
2018-05-07T05:20:13.285Z,17.00
2018-05-07T05:22:40.343Z,17.10
2018-05-07T05:25:07.181Z,17.30
2018-05-07T05:27:34.468Z,17.50
2018-05-07T05:30:01.329Z,17.50
2018-05-07T05:32:28.219Z,17.60
2018-05-07T05:34:55.071Z,17.50
2018-05-07T05:37:22.137Z,17.50
2018-05-07T05:39:49.330Z,17.50
2018-05-07T05:42:16.225Z,17.50
2018-05-07T05:44:43.087Z,17.50
2018-05-07T05:47:09.950Z,17.50
2018-05-07T05:49:36.915Z,17.60
2018-05-07T05:52:03.744Z,17.70
2018-05-07T05:54:31.036Z,17.70
2018-05-07T05:56:57.891Z,17.70
2018-05-07T05:59:24.726Z,17.70
2018-05-07T06:01:51.724Z,17.60
2018-05-07T06:04:18.598Z,17.70
2018-05-07T06:06:45.468Z,17.80
2018-05-07T06:09:12.370Z,17.80
2018-05-07T06:11:39.244Z,17.80
2018-05-07T06:14:06.203Z,17.80
2018-05-07T06:16:33.066Z,17.90
2018-05-07T06:18:59.909Z,18.00
2018-05-07T06:21:26.772Z,18.00
2018-05-07T06:23:53.618Z,18.20
2018-05-07T06:26:20.587Z,18.20
2018-05-07T06:28:47.532Z,18.20
2018-05-07T06:31:14.755Z,18.30
2018-05-07T06:33:41.670Z,18.30
2018-05-07T06:36:08.510Z,18.40
2018-05-07T06:38:35.364Z,18.40
2018-05-07T06:41:02.598Z,18.50
2018-05-07T06:43:29.449Z,18.50
2018-05-07T06:45:56.309Z,18.60
2018-05-07T06:48:23.239Z,18.70
2018-05-07T06:50:50.089Z,18.70
2018-05-07T06:53:16.932Z,18.80
2018-05-07T06:55:43.807Z,18.80
2018-05-07T06:58:10.662Z,18.80
2018-05-07T07:00:37.505Z,18.80
2018-05-07T07:03:04.457Z,18.90
2018-05-07T07:05:31.303Z,18.90
2018-05-07T07:07:58.596Z,19.00
2018-05-07T07:10:25.446Z,19.00
2018-05-07T07:12:52.289Z,18.90
2018-05-07T07:15:19.564Z,18.90
2018-05-07T07:17:46.526Z,18.90
2018-05-07T07:20:13.403Z,19.00
2018-05-07T07:22:40.248Z,19.10
2018-05-07T07:25:07.095Z,19.30
2018-05-07T07:27:33.959Z,19.30
2018-05-07T07:30:00.824Z,19.30
2018-05-07T07:32:27.686Z,19.30
2018-05-07T07:34:54.588Z,19.40
2018-05-07T07:37:21.483Z,19.60
2018-05-07T07:39:48.313Z,19.60
2018-05-07T07:42:15.612Z,19.80
2018-05-07T07:44:42.568Z,19.80
2018-05-07T07:47:09.422Z,19.90
2018-05-07T07:49:36.678Z,20.00
2018-05-07T07:52:03.521Z,20.00
2018-05-07T07:54:30.806Z,20.10
2018-05-07T07:56:57.667Z,20.10
2018-05-07T07:59:24.673Z,20.20
2018-05-07T08:01:51.485Z,20.20
2018-05-07T08:04:18.337Z,20.30
2018-05-07T08:06:45.607Z,20.50
2018-05-07T08:09:12.439Z,20.50
2018-05-07T08:11:39.678Z,20.60
2018-05-07T08:14:06.593Z,20.60
2018-05-07T08:16:33.454Z,20.70
2018-05-07T08:19:00.323Z,20.70
2018-05-07T08:21:27.195Z,20.70
2018-05-07T08:23:54.144Z,20.60
2018-05-07T08:26:21.091Z,20.70
2018-05-07T08:28:47.945Z,20.70
2018-05-07T08:31:14.802Z,20.70
2018-05-07T08:33:41.648Z,20.80
2018-05-07T08:36:08.496Z,21.00
2018-05-07T08:38:35.726Z,21.30
2018-05-07T08:41:02.649Z,21.30
2018-05-07T08:43:29.522Z,21.30
2018-05-07T08:45:56.475Z,21.40
2018-05-07T08:48:23.318Z,21.50
2018-05-07T08:50:50.341Z,21.50
2018-05-07T08:53:17.317Z,21.60
2018-05-07T08:55:44.198Z,21.70
2018-05-07T08:58:11.090Z,21.80
2018-05-07T09:00:37.951Z,21.90
2018-05-07T09:03:04.796Z,21.90
2018-05-07T09:05:31.649Z,22.00
2018-05-07T09:07:58.507Z,22.00
2018-05-07T09:10:25.430Z,22.10
2018-05-07T09:12:52.711Z,22.30
2018-05-07T09:15:19.617Z,22.30
2018-05-07T09:17:46.512Z,22.30
2018-05-07T09:20:13.389Z,22.30
2018-05-07T09:22:40.251Z,22.40
2018-05-07T09:25:07.191Z,22.40
2018-05-07T09:27:34.032Z,22.50
2018-05-07T09:30:00.892Z,22.60
2018-05-07T09:32:27.736Z,22.70
2018-05-07T09:34:55.005Z,22.80
2018-05-07T09:37:21.910Z,22.70
2018-05-07T09:39:48.777Z,22.80
2018-05-07T09:42:15.708Z,22.90
2018-05-07T09:44:42.608Z,23.00
2018-05-07T09:47:09.456Z,23.10
2018-05-07T09:49:36.320Z,23.10
2018-05-07T09:52:03.182Z,23.10
2018-05-07T09:54:30.095Z,23.10
2018-05-07T09:56:57.075Z,23.10
2018-05-07T09:59:23.805Z,23.10
2018-05-07T10:01:50.651Z,23.30
2018-05-07T10:04:17.500Z,23.40
2018-05-07T10:06:44.349Z,23.40
2018-05-07T10:09:11.195Z,23.50
2018-05-07T10:11:38.584Z,23.50
2018-05-07T10:14:05.903Z,23.60
2018-05-07T10:16:32.772Z,23.70
2018-05-07T10:18:59.673Z,23.80
2018-05-07T10:21:26.520Z,23.80
2018-05-07T10:23:53.796Z,23.60
2018-05-07T10:26:20.691Z,23.60
2018-05-07T10:28:47.530Z,23.60
2018-05-07T10:31:14.661Z,23.70
2018-05-07T10:33:41.548Z,23.70
2018-05-07T10:36:08.497Z,23.90
2018-05-07T10:38:35.337Z,23.80
2018-05-07T10:41:02.577Z,23.80
2018-05-07T10:43:29.833Z,24.00
2018-05-07T10:45:56.687Z,24.00
2018-05-07T10:48:23.686Z,24.20
2018-05-07T10:50:51.180Z,24.20
2018-05-07T10:53:18.420Z,24.20
2018-05-07T10:55:45.681Z,24.10
2018-05-07T10:58:12.946Z,24.00
2018-05-07T11:00:39.838Z,24.00
2018-05-07T11:03:06.694Z,24.10
2018-05-07T11:05:33.545Z,24.10
2018-05-07T11:08:00.407Z,24.20
2018-05-07T11:10:27.261Z,24.30
2018-05-07T11:12:54.541Z,24.30
2018-05-07T11:15:21.386Z,24.30
2018-05-07T11:17:48.361Z,24.40
2018-05-07T11:20:15.222Z,24.50
2018-05-07T11:22:42.082Z,24.50
2018-05-07T11:25:08.935Z,24.60
2018-05-07T11:27:35.870Z,24.60
2018-05-07T11:30:02.784Z,24.60
2018-05-07T11:32:29.656Z,24.60
2018-05-07T11:34:56.661Z,24.50
2018-05-07T11:37:23.538Z,24.40
2018-05-07T11:39:50.378Z,24.60
2018-05-07T11:42:17.238Z,24.70
2018-05-07T11:44:44.179Z,24.80
2018-05-07T11:47:11.419Z,24.80
2018-05-07T11:49:38.726Z,24.90
2018-05-07T11:52:05.671Z,24.90
2018-05-07T11:54:32.549Z,24.90
2018-05-07T11:56:59.381Z,24.90
2018-05-07T11:59:26.249Z,25.00
2018-05-07T12:01:53.208Z,24.90
2018-05-07T12:04:20.061Z,24.90
2018-05-07T12:06:46.919Z,25.00
2018-05-07T12:09:13.879Z,25.10
2018-05-07T12:11:41.091Z,25.30
2018-05-07T12:14:07.961Z,25.30
2018-05-07T12:16:34.830Z,25.40
2018-05-07T12:19:01.720Z,25.40
2018-05-07T12:21:28.570Z,25.40
2018-05-07T12:23:55.417Z,25.50
2018-05-07T12:26:22.363Z,25.60
2018-05-07T12:28:49.610Z,25.70
2018-05-07T12:31:16.475Z,25.70
2018-05-07T12:33:43.312Z,25.70
2018-05-07T12:36:10.641Z,25.60
2018-05-07T12:38:37.486Z,25.60
2018-05-07T12:41:04.323Z,25.60
2018-05-07T12:43:31.613Z,25.70
2018-05-07T12:45:58.462Z,25.70
2018-05-07T12:48:25.782Z,25.60
2018-05-07T12:50:52.632Z,25.60
2018-05-07T12:53:19.567Z,25.60
2018-05-07T12:55:46.516Z,25.50
2018-05-07T12:58:13.386Z,25.60
2018-05-07T13:00:40.222Z,25.50
2018-05-07T13:03:07.189Z,25.50
2018-05-07T13:05:34.444Z,25.70
2018-05-07T13:08:01.683Z,25.90
2018-05-07T13:10:28.603Z,25.90
2018-05-07T13:12:55.628Z,25.90
2018-05-07T13:15:23.065Z,25.70
2018-05-07T13:17:49.917Z,25.70
2018-05-07T13:20:16.765Z,25.70
2018-05-07T13:22:43.627Z,25.80
2018-05-07T13:25:10.557Z,25.90
2018-05-07T13:27:37.421Z,26.00
2018-05-07T13:30:04.287Z,25.90
2018-05-07T13:32:31.137Z,25.70
2018-05-07T13:34:58.076Z,25.70
2018-05-07T13:37:24.921Z,25.80
2018-05-07T13:39:51.842Z,26.00
2018-05-07T13:42:18.738Z,26.10
2018-05-07T13:44:45.596Z,26.10
2018-05-07T13:47:12.445Z,26.10
2018-05-07T13:49:39.310Z,25.80
2018-05-07T13:52:06.156Z,25.60
2018-05-07T13:54:33.031Z,25.50
2018-05-07T13:56:59.964Z,25.50
2018-05-07T13:59:26.721Z,25.60
2018-05-07T14:01:53.596Z,25.80
2018-05-07T14:04:20.446Z,26.00
2018-05-07T14:06:47.424Z,26.00
2018-05-07T14:09:14.286Z,26.00
2018-05-07T14:11:41.125Z,26.10
2018-05-07T14:14:08.106Z,26.20
2018-05-07T14:16:34.981Z,26.30
2018-05-07T14:19:02.033Z,26.50
2018-05-07T14:21:28.874Z,26.60
2018-05-07T14:23:55.738Z,26.80
2018-05-07T14:26:22.581Z,26.70
2018-05-07T14:28:49.587Z,26.40
2018-05-07T14:31:16.428Z,26.20
2018-05-07T14:33:43.276Z,26.40
2018-05-07T14:36:10.214Z,26.50
2018-05-07T14:38:37.053Z,26.70
2018-05-07T14:41:03.911Z,26.70
2018-05-07T14:43:30.755Z,26.60
2018-05-07T14:45:58.023Z,26.60
2018-05-07T14:48:25.265Z,26.70
2018-05-07T14:50:52.650Z,26.90
2018-05-07T14:53:19.886Z,27.00
2018-05-07T14:55:46.881Z,26.90
2018-05-07T14:58:13.666Z,27.10
2018-05-07T15:00:40.531Z,27.30
2018-05-07T15:03:07.675Z,27.40
2018-05-07T15:05:34.540Z,27.40
2018-05-07T15:08:01.402Z,27.40
2018-05-07T15:10:28.415Z,27.60
2018-05-07T15:12:55.297Z,27.70
2018-05-07T15:15:22.533Z,27.90
2018-05-07T15:17:49.428Z,27.90
2018-05-07T15:20:16.662Z,28.10
2018-05-07T15:22:43.602Z,28.10
2018-05-07T15:25:10.458Z,28.30
2018-05-07T15:27:37.394Z,28.40
2018-05-07T15:30:04.243Z,28.40
2018-05-07T15:32:31.183Z,28.50
2018-05-07T15:34:58.425Z,28.60
2018-05-07T15:37:25.742Z,28.50
2018-05-07T15:39:52.683Z,28.50
2018-05-07T15:42:19.611Z,28.60
2018-05-07T15:44:46.489Z,28.60
2018-05-07T15:47:13.476Z,28.70
2018-05-07T15:49:40.410Z,28.60
2018-05-07T15:52:07.890Z,28.20
2018-05-07T15:54:34.736Z,28.20
2018-05-07T15:57:01.574Z,28.10
2018-05-07T15:59:28.966Z,28.30
2018-05-07T16:01:56.258Z,28.50
2018-05-07T16:04:23.113Z,28.50
2018-05-07T16:06:50.047Z,28.60
2018-05-07T16:09:16.923Z,28.80
2018-05-07T16:11:43.762Z,28.80
2018-05-07T16:14:10.713Z,28.70
2018-05-07T16:16:37.635Z,28.70
2018-05-07T16:19:04.635Z,28.90
2018-05-07T16:21:31.849Z,29.60
2018-05-07T16:23:58.781Z,29.60
2018-05-07T16:26:25.696Z,30.00
2018-05-07T16:28:52.591Z,30.60
2018-05-07T16:31:19.697Z,31.50
2018-05-07T16:33:46.507Z,32.50
2018-05-07T16:36:13.363Z,33.30
2018-05-07T16:38:40.323Z,33.40
2018-05-07T16:41:07.280Z,33.60
2018-05-07T16:43:34.221Z,33.90
2018-05-07T16:46:01.106Z,34.20
2018-05-07T16:48:28.029Z,34.60
2018-05-07T16:50:54.813Z,35.20
2018-05-07T16:53:21.763Z,35.60
2018-05-07T16:55:48.678Z,36.00
2018-05-07T16:58:15.587Z,36.30
2018-05-07T17:00:42.444Z,36.30
2018-05-07T17:03:09.304Z,36.00
2018-05-07T17:05:36.183Z,35.80
2018-05-07T17:08:03.117Z,35.50
2018-05-07T17:10:29.995Z,35.30
2018-05-07T17:12:56.935Z,35.40
2018-05-07T17:15:23.787Z,35.40
2018-05-07T17:17:50.627Z,35.50
2018-05-07T17:20:17.514Z,35.80
2018-05-07T17:22:44.374Z,36.00
2018-05-07T17:25:11.311Z,36.30
2018-05-07T17:27:38.373Z,36.50
2018-05-07T17:30:05.292Z,36.50
2018-05-07T17:32:32.064Z,36.50
2018-05-07T17:34:59.320Z,36.30
2018-05-07T17:37:26.633Z,36.50
2018-05-07T17:39:53.503Z,36.50
2018-05-07T17:42:20.452Z,36.80
2018-05-07T17:44:59.252Z,37.00
2018-05-07T17:47:38.610Z,37.50
2018-05-07T17:50:05.578Z,37.50
2018-05-07T17:52:32.537Z,37.60
2018-05-07T17:54:59.404Z,37.70
2018-05-07T17:57:26.269Z,37.80
2018-05-07T17:59:53.301Z,37.40
2018-05-07T18:02:20.068Z,37.20
2018-05-07T18:04:47.029Z,37.00
2018-05-07T18:07:14.246Z,36.60
2018-05-07T18:09:41.107Z,36.60
2018-05-07T18:12:08.028Z,36.30
2018-05-07T18:14:34.901Z,35.80
2018-05-07T18:17:01.747Z,35.40
2018-05-07T18:19:28.616Z,35.00
2018-05-07T18:21:55.510Z,34.60
2018-05-07T18:24:22.571Z,34.10
2018-05-07T18:26:49.823Z,32.90
2018-05-07T18:29:16.675Z,32.90
2018-05-07T18:31:43.531Z,32.40
2018-05-07T18:34:10.373Z,31.80
2018-05-07T18:36:37.305Z,31.20
2018-05-07T18:39:04.169Z,30.60
2018-05-07T18:41:31.010Z,29.90
2018-05-07T18:43:57.887Z,29.30
2018-05-07T18:46:24.737Z,28.70
2018-05-07T18:48:51.626Z,28.20
2018-05-07T18:51:18.508Z,27.80
2018-05-07T18:53:45.811Z,27.00
2018-05-07T18:56:12.761Z,27.00
2018-05-07T18:58:39.620Z,26.60
2018-05-07T19:01:06.484Z,26.40
2018-05-07T19:03:33.437Z,26.10
2018-05-07T19:06:00.287Z,25.90
2018-05-07T19:08:27.155Z,25.70
2018-05-07T19:10:54.184Z,25.60
2018-05-07T19:13:21.521Z,25.20
2018-05-07T19:15:48.458Z,25.20
2018-05-07T19:18:15.306Z,25.00
2018-05-07T19:20:42.372Z,24.80
2018-05-07T19:23:09.203Z,24.60
2018-05-07T19:25:36.221Z,24.40
2018-05-07T19:28:03.024Z,23.90
2018-05-07T19:30:29.864Z,23.70
2018-05-07T19:32:57.121Z,23.60
2018-05-07T19:35:24.420Z,23.60
2018-05-07T19:37:51.338Z,23.60
2018-05-07T19:40:18.229Z,23.60
2018-05-07T19:42:45.070Z,23.60
2018-05-07T19:45:12.359Z,23.60
2018-05-07T19:47:39.206Z,23.60
2018-05-07T19:50:06.098Z,23.50
2018-05-07T19:52:33.169Z,23.30
2018-05-07T19:55:00.100Z,23.20
2018-05-07T19:57:27.418Z,23.10
2018-05-07T19:59:54.371Z,23.00
2018-05-07T20:02:21.551Z,22.70
2018-05-07T20:04:48.867Z,22.70
2018-05-07T20:07:15.809Z,22.70
2018-05-07T20:09:42.757Z,22.70
2018-05-07T20:12:09.698Z,22.70
2018-05-07T20:14:36.465Z,22.70
2018-05-07T20:17:03.717Z,22.60
2018-05-07T20:19:31.005Z,22.50
2018-05-07T20:21:58.297Z,22.40
2018-05-07T20:24:25.202Z,22.40
2018-05-07T20:26:52.073Z,22.30
2018-05-07T20:29:18.945Z,22.20
2018-05-07T20:31:46.189Z,22.10
2018-05-07T20:34:13.033Z,22.20
2018-05-07T20:36:39.955Z,22.10
2018-05-07T20:39:06.903Z,22.00
2018-05-07T20:41:33.761Z,22.00
2018-05-07T20:44:00.623Z,21.90
2018-05-07T20:46:27.487Z,21.90
2018-05-07T21:34:45.792Z,22.00
2018-05-07T21:37:12.649Z,20.30
2018-05-07T21:39:39.510Z,20.50
2018-05-07T21:42:06.366Z,20.70
2018-05-07T21:44:33.215Z,20.70
2018-05-07T21:47:00.068Z,20.80
2018-05-07T21:49:27.034Z,20.80
2018-05-07T21:51:53.922Z,20.80
2018-05-07T21:54:20.868Z,20.90
2018-05-07T21:56:47.712Z,20.80
2018-05-07T21:59:14.626Z,20.90
2018-05-07T22:01:41.913Z,20.90
2018-05-07T22:04:08.774Z,20.90
2018-05-07T22:06:36.083Z,20.70
2018-05-07T22:09:02.923Z,20.70
2018-05-07T22:11:29.784Z,20.80
2018-05-07T22:13:56.647Z,20.80
2018-05-07T22:16:23.504Z,20.90
2018-05-07T22:18:50.358Z,20.90
2018-05-07T22:21:17.236Z,20.90
2018-05-07T22:23:44.075Z,20.90
2018-05-07T22:26:10.951Z,20.90
2018-05-07T22:28:37.815Z,20.90
2018-05-07T22:31:04.673Z,20.90
2018-05-07T22:33:31.603Z,20.80
2018-05-07T22:35:58.464Z,20.80
2018-05-07T22:38:25.428Z,20.70
2018-05-07T22:40:52.389Z,20.70
2018-05-07T22:43:19.248Z,20.60
2018-05-07T22:45:46.162Z,20.60
2018-05-07T22:48:13.027Z,20.50
2018-05-07T22:50:39.885Z,20.40
2018-05-07T22:53:07.126Z,20.30
2018-05-07T22:55:34.367Z,20.30
2018-05-07T22:58:01.292Z,20.30
2018-05-07T23:00:28.136Z,20.20
2018-05-07T23:02:55.013Z,20.20
2018-05-07T23:05:21.956Z,20.20
2018-05-07T23:07:48.821Z,20.30
2018-05-07T23:10:15.759Z,20.20
2018-05-07T23:12:42.986Z,20.10
2018-05-07T23:15:09.827Z,20.10
2018-05-07T23:17:36.680Z,20.10
2018-05-07T23:20:03.604Z,20.10
2018-05-07T23:22:30.464Z,20.10
2018-05-07T23:24:57.437Z,20.10
2018-05-07T23:27:24.397Z,20.10
2018-05-07T23:29:51.233Z,20.00
2018-05-07T23:32:18.109Z,20.10
2018-05-07T23:34:44.967Z,20.00
2018-05-07T23:37:11.859Z,20.00
2018-05-07T23:39:38.727Z,19.90
2018-05-07T23:42:05.961Z,19.80
2018-05-07T23:44:32.805Z,19.80
2018-05-07T23:46:59.747Z,19.80
2018-05-07T23:49:26.726Z,19.70
2018-05-07T23:51:53.569Z,19.60
2018-05-07T23:54:20.529Z,19.70
2018-05-07T23:56:47.390Z,19.70
2018-05-07T23:59:14.241Z,19.60
